createdAt,value
2019-03-12T00:01:12.071Z,99.90
2019-03-12T00:03:45.109Z,99.90
2019-03-12T00:06:15.841Z,99.90
2019-03-12T00:09:16.592Z,99.90
2019-03-12T00:11:56.268Z,99.90
2019-03-12T00:14:37.708Z,99.90
2019-03-12T00:23:07.232Z,99.90
2019-03-12T00:25:27.448Z,99.90
2019-03-12T00:33:01.114Z,99.90
2019-03-12T00:37:41.542Z,99.90
2019-03-12T00:40:34.012Z,99.90
2019-03-12T00:42:48.962Z,99.90
2019-03-12T00:45:01.228Z,99.90
2019-03-12T00:47:39.820Z,99.90
2019-03-12T00:50:30.051Z,99.90
2019-03-12T00:52:52.535Z,99.90
2019-03-12T00:55:16.420Z,99.90
2019-03-12T00:57:28.783Z,99.90
2019-03-12T01:00:35.100Z,99.90
2019-03-12T01:02:46.991Z,99.90
2019-03-12T01:05:01.718Z,99.90
2019-03-12T01:10:24.575Z,99.90
2019-03-12T01:12:53.877Z,99.90
2019-03-12T01:15:17.404Z,99.90
2019-03-12T01:17:45.224Z,99.90
2019-03-12T01:20:16.841Z,99.90
2019-03-12T01:22:25.654Z,99.90
2019-03-12T01:24:43.012Z,99.90
2019-03-12T01:27:06.394Z,99.90
2019-03-12T01:29:35.888Z,99.90
2019-03-12T01:32:00.784Z,99.90
2019-03-12T01:34:29.757Z,99.90
2019-03-12T01:36:37.975Z,99.90
2019-03-12T01:39:29.194Z,99.90
2019-03-12T01:41:55.422Z,99.90
2019-03-12T01:44:48.914Z,99.90
2019-03-12T01:47:25.972Z,99.90
2019-03-12T01:50:13.229Z,99.90
2019-03-12T01:52:23.401Z,99.90
2019-03-12T01:54:47.311Z,99.90
2019-03-12T01:57:17.800Z,99.90
2019-03-12T02:00:12.367Z,99.90
2019-03-12T02:02:45.974Z,99.90
2019-03-12T02:05:18.719Z,99.90
2019-03-12T02:08:03.174Z,99.90
2019-03-12T02:10:23.338Z,99.90
2019-03-12T02:12:31.392Z,99.90
2019-03-12T02:15:15.833Z,99.90
2019-03-12T02:18:29.048Z,99.90
2019-03-12T02:20:49.599Z,99.90
2019-03-12T02:22:53.772Z,99.90
2019-03-12T02:25:29.977Z,99.90
2019-03-12T02:30:52.774Z,99.90
2019-03-12T02:33:01.423Z,99.90
2019-03-12T02:35:06.139Z,99.90
2019-03-12T02:37:38.719Z,99.90
2019-03-12T02:42:51.705Z,99.90
2019-03-12T02:45:01.603Z,99.90
2019-03-12T02:47:21.301Z,99.90
2019-03-12T02:49:38.739Z,99.90
2019-03-12T02:51:53.221Z,99.90
2019-03-12T02:54:04.564Z,99.90
2019-03-12T02:56:17.377Z,99.90
2019-03-12T02:58:25.140Z,99.90
2019-03-12T03:00:38.272Z,99.90
2019-03-12T03:02:48.655Z,99.90
2019-03-12T03:04:55.669Z,99.90
2019-03-12T03:07:10.482Z,99.90
2019-03-12T03:09:32.503Z,99.90
2019-03-12T03:11:50.772Z,99.90
2019-03-12T03:14:07.704Z,99.90
2019-03-12T03:16:23.710Z,99.90
2019-03-12T03:18:42.395Z,99.90
2019-03-12T03:21:07.326Z,99.90
2019-03-12T03:23:23.283Z,99.90
2019-03-12T03:25:39.664Z,99.90
2019-03-12T03:27:48.295Z,99.90
2019-03-12T03:29:57.804Z,99.90
2019-03-12T03:32:15.946Z,99.90
2019-03-12T03:34:28.168Z,99.90
2019-03-12T03:36:48.405Z,99.90
2019-03-12T03:39:37.737Z,99.90
2019-03-12T03:42:21.129Z,99.90
2019-03-12T03:45:14.925Z,99.90
2019-03-12T03:47:46.670Z,99.90
2019-03-12T03:50:31.864Z,99.90
2019-03-12T03:52:53.606Z,99.90
2019-03-12T03:55:42.865Z,99.90
2019-03-12T04:01:18.952Z,99.90
2019-03-12T04:03:53.579Z,99.90
2019-03-12T04:06:33.773Z,99.90
2019-03-12T04:08:45.007Z,99.90
2019-03-12T04:11:03.216Z,99.90
2019-03-12T04:13:12.524Z,99.90
2019-03-12T04:15:22.790Z,99.90
2019-03-12T04:17:38.941Z,99.90
2019-03-12T04:19:51.252Z,99.90
2019-03-12T04:22:01.768Z,99.90
2019-03-12T04:24:11.586Z,99.90
2019-03-12T04:26:18.367Z,99.90
2019-03-12T04:28:26.857Z,99.90
2019-03-12T04:30:47.828Z,99.90
2019-03-12T04:33:05.365Z,99.90
2019-03-12T04:35:15.390Z,99.90
2019-03-12T04:37:21.964Z,99.90
2019-03-12T04:39:44.799Z,99.90
2019-03-12T04:42:16.691Z,99.90
2019-03-12T04:44:36.519Z,99.90
2019-03-12T04:46:55.896Z,99.90
2019-03-12T04:49:36.653Z,99.90
2019-03-12T04:52:03.809Z,99.90
2019-03-12T04:54:27.266Z,99.90
2019-03-12T04:59:28.102Z,99.90
2019-03-12T05:02:18.154Z,99.90
2019-03-12T05:04:14.916Z,99.90
2019-03-12T05:06:29.629Z,99.90
2019-03-12T05:15:32.903Z,99.90
2019-03-12T05:19:28.426Z,99.90
2019-03-12T05:21:46.624Z,99.90
2019-03-12T05:28:33.607Z,99.90
2019-03-12T05:30:51.416Z,99.90
2019-03-12T05:34:23.189Z,99.90
2019-03-12T05:37:13.780Z,99.90
2019-03-12T05:39:09.041Z,99.90
2019-03-12T05:41:24.057Z,99.90
2019-03-12T05:43:59.123Z,99.90
2019-03-12T05:46:36.933Z,99.90
2019-03-12T05:49:14.224Z,99.90
2019-03-12T05:51:24.119Z,99.90
2019-03-12T05:53:59.176Z,99.90
2019-03-12T05:56:03.120Z,99.90
2019-03-12T06:01:46.978Z,99.90
2019-03-12T06:02:28.848Z,99.90
2019-03-12T06:04:33.331Z,99.90
2019-03-12T06:07:10.426Z,99.90
2019-03-12T06:13:58.256Z,99.90
2019-03-12T06:16:28.800Z,99.90
2019-03-12T06:21:45.913Z,99.90
2019-03-12T06:24:43.278Z,99.90
2019-03-12T06:28:06.699Z,99.90
2019-03-12T06:35:27.702Z,99.90
2019-03-12T06:47:13.351Z,99.90
2019-03-12T06:50:18.279Z,99.90
2019-03-12T07:05:31.802Z,99.90
2019-03-12T07:15:09.763Z,99.90
2019-03-12T07:24:15.734Z,99.90
2019-03-12T07:26:46.118Z,99.90
2019-03-12T07:29:15.449Z,99.90
2019-03-12T09:57:00.548Z,99.90
2019-03-12T09:59:40.697Z,99.90
2019-03-12T10:02:34.194Z,99.90
2019-03-12T10:05:14.379Z,99.90
2019-03-12T10:08:10.838Z,99.90
2019-03-12T10:37:12.007Z,99.10
2019-03-12T10:57:17.810Z,94.20
2019-03-12T11:03:09.600Z,91.20
2019-03-12T11:05:27.722Z,91.70
2019-03-12T11:08:40.655Z,92.10
2019-03-12T11:27:16.664Z,81.30
2019-03-12T11:32:38.958Z,76.80
2019-03-12T11:34:38.508Z,77.50
2019-03-12T11:36:46.007Z,77.60
2019-03-12T11:38:54.440Z,76.30
2019-03-12T11:40:58.771Z,72.40
2019-03-12T11:43:10.029Z,70.70
2019-03-12T11:45:20.400Z,70.10
2019-03-12T11:47:29.728Z,70.60
2019-03-12T11:49:40.354Z,69.40
2019-03-12T11:51:51.533Z,68.10
2019-03-12T11:54:04.078Z,68.10
2019-03-12T11:56:14.010Z,66.70
2019-03-12T11:58:24.826Z,66.00
2019-03-12T12:00:40.724Z,66.80
2019-03-12T12:02:59.289Z,63.80
2019-03-12T12:05:04.349Z,64.30
2019-03-12T12:07:23.412Z,60.60
2019-03-12T12:09:31.594Z,58.30
2019-03-12T12:11:37.525Z,56.80
2019-03-12T12:13:52.281Z,55.70
2019-03-12T12:16:07.255Z,55.10
2019-03-12T12:18:24.875Z,56.00
2019-03-12T12:20:34.421Z,56.10
2019-03-12T12:22:50.634Z,55.50
2019-03-12T12:25:03.973Z,53.80
2019-03-12T12:30:57.218Z,54.60
2019-03-12T12:37:14.024Z,52.80
2019-03-12T12:40:08.635Z,53.30
2019-03-12T12:43:03.637Z,52.70
2019-03-12T12:49:21.718Z,51.90
2019-03-12T12:55:26.354Z,49.10
2019-03-12T12:58:12.171Z,49.20
2019-03-12T13:01:12.438Z,49.60
2019-03-12T13:03:56.041Z,49.80
2019-03-12T13:09:33.113Z,51.40
2019-03-12T13:25:12.202Z,50.70
2019-03-12T13:28:32.737Z,49.80
2019-03-12T13:37:51.695Z,49.60
2019-03-12T13:43:59.845Z,47.60
2019-03-12T13:47:06.805Z,47.60
2019-03-12T13:49:50.065Z,47.80
2019-03-12T13:52:16.202Z,47.30
2019-03-12T13:54:34.128Z,47.40
2019-03-12T13:56:54.062Z,46.80
2019-03-12T13:59:04.688Z,47.10
2019-03-12T14:01:15.603Z,47.40
2019-03-12T14:06:28.361Z,47.30
2019-03-12T14:08:49.164Z,46.60
2019-03-12T14:11:02.524Z,46.00
2019-03-12T14:13:17.320Z,45.30
2019-03-12T14:15:33.285Z,45.10
2019-03-12T14:17:52.591Z,45.50
2019-03-12T14:23:29.401Z,45.90
2019-03-12T14:25:48.881Z,47.40
2019-03-12T14:28:04.618Z,45.60
2019-03-12T14:30:19.124Z,45.50
2019-03-12T14:32:36.767Z,46.00
2019-03-12T14:34:49.023Z,46.10
2019-03-12T14:36:56.623Z,46.30
2019-03-12T14:39:10.513Z,46.80
2019-03-12T14:41:21.094Z,47.10
2019-03-12T14:43:52.035Z,47.40
2019-03-12T14:45:58.738Z,48.20
2019-03-12T14:48:05.943Z,49.00
2019-03-12T14:50:22.564Z,49.40
2019-03-12T14:52:47.563Z,50.30
2019-03-12T14:55:11.002Z,50.40
2019-03-12T14:57:27.570Z,50.00
2019-03-12T14:59:47.973Z,49.60
2019-03-12T15:01:52.506Z,50.20
2019-03-12T15:03:56.506Z,50.70
2019-03-12T15:06:00.443Z,50.60
2019-03-12T15:08:05.926Z,50.50
2019-03-12T15:10:11.445Z,51.30
2019-03-12T15:12:20.576Z,51.70
2019-03-12T15:17:54.432Z,51.30
2019-03-12T15:20:11.953Z,51.80
2019-03-12T15:22:36.315Z,51.60
2019-03-12T15:24:47.174Z,52.10
2019-03-12T15:27:18.394Z,52.20
2019-03-12T15:29:27.105Z,52.40
2019-03-12T15:31:43.783Z,52.80
2019-03-12T15:33:54.305Z,53.00
2019-03-12T15:36:08.660Z,51.20
2019-03-12T15:38:12.727Z,51.90
2019-03-12T15:40:17.032Z,52.20
2019-03-12T15:42:20.931Z,51.10
2019-03-12T15:44:25.062Z,51.10
2019-03-12T15:49:15.212Z,51.10
2019-03-12T15:51:25.840Z,51.50
2019-03-12T15:53:43.717Z,51.80
2019-03-12T15:55:59.460Z,52.10
2019-03-12T16:08:45.173Z,52.20
2019-03-12T16:11:38.089Z,52.80
2019-03-12T17:09:59.717Z,55.50
2019-03-12T18:48:10.144Z,48.40
2019-03-12T18:50:15.039Z,48.40
2019-03-12T18:52:19.427Z,47.70
2019-03-12T18:54:23.664Z,47.70
2019-03-12T18:56:40.163Z,47.60
2019-03-12T18:58:44.195Z,47.40
2019-03-12T19:00:49.232Z,47.90
2019-03-12T19:02:53.090Z,48.10
2019-03-12T19:05:00.408Z,47.80
2019-03-12T19:07:09.581Z,48.20
2019-03-12T19:09:15.897Z,48.50
2019-03-12T19:11:32.485Z,48.00
2019-03-12T19:13:37.284Z,48.00
2019-03-12T19:15:41.310Z,47.20
2019-03-12T19:17:54.036Z,47.50
2019-03-12T19:20:03.007Z,47.70
2019-03-12T19:22:12.968Z,47.80
2019-03-12T19:24:20.157Z,47.90
2019-03-12T19:26:42.373Z,48.80
2019-03-12T19:28:53.210Z,47.70
2019-03-12T19:31:23.277Z,47.60
2019-03-12T19:33:36.421Z,47.40
2019-03-12T19:35:43.408Z,47.70
2019-03-12T19:38:02.537Z,47.60
2019-03-12T19:40:18.190Z,47.30
2019-03-12T19:42:24.210Z,47.60
2019-03-12T19:44:38.710Z,47.60
2019-03-12T19:47:04.480Z,47.60
2019-03-12T19:55:55.377Z,50.20
2019-03-12T19:59:10.256Z,53.90
2019-03-12T20:01:53.186Z,54.40
2019-03-12T20:04:47.227Z,57.00
2019-03-12T20:07:26.627Z,57.80
2019-03-12T20:10:12.577Z,58.30
2019-03-12T20:13:12.980Z,59.10
2019-03-12T20:16:05.783Z,59.70
2019-03-12T20:18:58.800Z,60.60
2019-03-12T20:22:00.439Z,62.40
2019-03-12T20:24:55.135Z,63.40
2019-03-12T20:27:36.875Z,64.50
2019-03-12T20:30:16.088Z,66.80
2019-03-12T20:56:39.369Z,99.90
2019-03-12T21:02:26.587Z,99.90
2019-03-12T21:05:28.198Z,99.90
2019-03-12T21:14:59.931Z,99.90
2019-03-12T21:17:41.543Z,99.90
2019-03-12T21:20:38.783Z,99.90
2019-03-12T21:26:33.275Z,99.90
2019-03-12T21:29:23.914Z,99.90
2019-03-12T21:31:32.348Z,99.90
2019-03-12T21:37:31.242Z,99.90
2019-03-12T21:40:26.992Z,99.90
2019-03-12T21:43:12.101Z,99.90
2019-03-12T21:52:03.156Z,99.90
2019-03-12T21:58:31.558Z,99.90
2019-03-12T22:01:28.845Z,99.90
2019-03-12T22:03:25.571Z,99.90
2019-03-12T22:05:29.501Z,99.90
2019-03-12T22:08:26.488Z,99.90
2019-03-12T22:20:51.392Z,99.90
2019-03-12T22:23:51.344Z,99.90
2019-03-12T22:51:34.000Z,99.90
2019-03-12T23:15:10.779Z,99.90
2019-03-12T23:17:49.942Z,99.90
2019-03-12T23:21:04.150Z,99.90
2019-03-12T23:26:25.608Z,99.90
2019-03-12T23:28:57.453Z,99.90
2019-03-12T23:31:23.273Z,99.90
2019-03-12T23:33:57.555Z,99.90
2019-03-12T23:36:02.307Z,99.90
2019-03-12T23:38:14.142Z,99.90
2019-03-12T23:40:37.189Z,99.90
2019-03-12T23:43:08.797Z,99.90
2019-03-12T23:45:54.977Z,99.90
2019-03-12T23:47:44.381Z,99.90
2019-03-12T23:50:22.810Z,99.90
2019-03-12T23:52:26.899Z,99.90
2019-03-12T23:54:31.968Z,99.90
2019-03-12T23:57:16.731Z,99.90
